| Date | Time | Temp. (oF) | Dew Point (oF) | Rel. Hum. (%) | Press. (in.) | Wind Dir. | Wind Speed (mph) | Hourly Rainfall (in.) |
|
|---|---|---|---|---|---|---|---|---|---|
| 1 | 12/07 | 00:00 | 24 | 15 | 69 | 30.29 | SW | 1 | 0.00 |
| 2 | 12/06 | 23:00 | 22 | 15 | 75 | 30.28 | SW | 1 | 0.00 |
| 3 | 12/06 | 22:00 | 23 | 15 | 72 | 30.27 | SW | 0 | 0.00 |
| 4 | 12/06 | 21:00 | 26 | 16 | 66 | 30.25 | SW | 1 | 0.00 |
| 5 | 12/06 | 20:00 | 26 | 15 | 65 | 30.23 | WSW | 5 | 0.00 |
| 6 | 12/06 | 19:00 | 27 | 15 | 61 | 30.22 | SSW | 2 | 0.00 |
| 7 | 12/06 | 18:00 | 29 | 14 | 55 | 30.20 | NW | 1 | 0.00 |
| 8 | 12/06 | 17:00 | 31 | 15 | 53 | 30.18 | NNW | 4 | 0.00 |
| 9 | 12/06 | 16:00 | 34 | 17 | 50 | 30.15 | NW | 5 | 0.00 |
| 10 | 12/06 | 15:00 | 35 | 17 | 49 | 30.13 | WNW | 10 | 0.00 |
| 11 | 12/06 | 14:00 | 35 | 19 | 52 | 30.11 | WNW | 11 | 0.00 |
| 12 | 12/06 | 13:00 | 34 | 21 | 59 | 30.11 | W | 5 | 0.00 |
| 13 | 12/06 | 12:00 | 33 | 22 | 65 | 30.12 | WSW | 17 | 0.00 |
| 14 | 12/06 | 11:00 | 32 | 21 | 66 | 30.13 | WNW | 11 | 0.00 |
| 15 | 12/06 | 10:00 | 30 | 22 | 72 | 30.13 | W | 8 | 0.00 |
| 16 | 12/06 | 09:00 | 28 | 21 | 75 | 30.11 | NW | 8 | 0.00 |
| 17 | 12/06 | 08:00 | 27 | 21 | 79 | 30.09 | WNW | 5 | 0.00 |
| 18 | 12/06 | 07:00 | 26 | 21 | 83 | 30.06 | NW | 5 | 0.00 |
| 19 | 12/06 | 06:00 | 26 | 20 | 81 | 30.04 | NW | 3 | 0.00 |
| 20 | 12/06 | 05:00 | 28 | 23 | 82 | 30.03 | NW | 4 | 0.00 |
| 21 | 12/06 | 04:00 | 28 | 24 | 87 | 30.02 | WNW | 6 | 0.00 |
| 22 | 12/06 | 03:00 | 28 | 25 | 92 | 30.03 | NW | 5 | 0.00 |
| 23 | 12/06 | 02:00 | 27 | 26 | 98 | 30.01 | NW | 2 | 0.00 |
| 24 | 12/06 | 01:00 | 27 | 26 | 99 | 30.01 | WNW | 4 | 0.00 |